Time;durP1;ratioP1;P1;durP2;ratioP2;P2;SDS_P1;SDS_P2;PMS_P1;PMS_P2;Temp;Humidity;BMP_temperature;BMP_pressure;BME280_temperature;BME280_humidity;BME280_pressure;Samples;Min_cycle;Max_cycle;Signal;HPM_P1;HPM_P2
2021/04/08 00:02:07;;;;;;;7.68;3.15;;;2.70;72.70;;;;;;5067011;28;20028;-67
2021/04/08 00:04:33;;;;;;;6.47;2.70;;;2.70;73.20;;;;;;5071028;28;20127;-67
2021/04/08 00:06:58;;;;;;;5.35;2.65;;;2.80;72.70;;;;;;5071190;28;20037;-66
2021/04/08 00:09:25;;;;;;;4.28;2.70;;;2.80;72.60;;;;;;5067783;28;20169;-67
2021/04/08 00:11:51;;;;;;;5.05;2.83;;;2.80;72.50;;;;;;5072757;28;20032;-67
2021/04/08 00:14:17;;;;;;;5.55;2.60;;;2.80;72.50;;;;;;5065608;28;20029;-66
2021/04/08 00:16:43;;;;;;;4.10;2.28;;;2.80;72.50;;;;;;5065316;28;20081;-67
2021/04/08 00:19:10;;;;;;;10.88;3.03;;;2.80;72.60;;;;;;5068911;28;20033;-67
2021/04/08 00:21:36;;;;;;;4.03;2.65;;;2.80;72.60;;;;;;5068466;28;20025;-65
2021/04/08 00:24:02;;;;;;;9.00;2.72;;;2.80;72.50;;;;;;5066063;28;20508;-67
2021/04/08 00:26:28;;;;;;;4.15;2.88;;;2.80;72.40;;;;;;5068810;28;20033;-67
2021/04/08 00:28:53;;;;;;;5.95;2.50;;;2.90;72.80;;;;;;5066837;28;20035;-68
2021/04/08 00:31:19;;;;;;;3.83;2.70;;;2.90;72.40;;;;;;5062536;28;20032;-67
2021/04/08 00:33:45;;;;;;;5.00;2.38;;;2.90;72.30;;;;;;5069071;28;20376;-67
2021/04/08 00:36:11;;;;;;;6.30;2.50;;;2.80;72.30;;;;;;5067835;28;20040;-66
2021/04/08 00:38:36;;;;;;;6.10;2.65;;;2.90;72.20;;;;;;5067208;28;20024;-67
2021/04/08 00:41:02;;;;;;;3.53;2.63;;;2.90;72.20;;;;;;5066081;28;20024;-67
2021/04/08 00:43:28;;;;;;;6.38;2.97;;;2.90;72.30;;;;;;5060211;28;20112;-67
2021/04/08 00:45:54;;;;;;;4.03;2.70;;;2.90;72.40;;;;;;5068222;28;20024;-67
2021/04/08 00:48:20;;;;;;;3.35;2.63;;;2.90;72.40;;;;;;5067208;28;20052;-67
2021/04/08 00:50:45;;;;;;;6.38;2.45;;;2.90;72.30;;;;;;5071055;28;20027;-67
2021/04/08 00:53:19;;;;;;;5.43;3.20;;;2.90;72.20;;;;;;5087031;28;20035;-67
2021/04/08 00:55:47;;;;;;;4.78;3.13;;;2.90;72.20;;;;;;5072039;28;20028;-67
2021/04/08 00:58:15;;;;;;;3.65;2.75;;;2.90;72.20;;;;;;5070709;28;20556;-66
2021/04/08 01:00:43;;;;;;;5.03;3.05;;;2.90;72.20;;;;;;5066147;28;20313;-68
2021/04/08 01:03:10;;;;;;;9.02;3.08;;;2.90;72.30;;;;;;5071784;28;20117;-67
2021/04/08 01:05:36;;;;;;;8.38;3.55;;;2.90;72.30;;;;;;5070903;28;20025;-67
2021/04/08 01:08:02;;;;;;;5.65;2.90;;;2.90;72.70;;;;;;5071333;28;20042;-66
2021/04/08 01:10:28;;;;;;;4.20;3.35;;;2.80;72.10;;;;;;5069644;28;20040;-66
2021/04/08 01:12:57;;;;;;;7.35;3.17;;;2.80;72.20;;;;;;5069864;28;20429;-66
2021/04/08 01:15:25;;;;;;;5.78;3.45;;;2.80;72.10;;;;;;5074640;28;20060;-67
2021/04/08 01:18:15;;;;;;;10.38;3.97;;;2.80;72.10;;;;;;5070283;28;20032;-67
2021/04/08 01:21:03;;;;;;;7.55;3.35;;;2.80;72.10;;;;;;5070147;28;20438;-67
2021/04/08 01:24:02;;;;;;;6.50;3.75;;;2.80;71.90;;;;;;5054898;28;20059;-67
2021/04/08 01:26:34;;;;;;;8.85;3.92;;;2.80;72.10;;;;;;5088880;28;20048;-66
2021/04/08 01:29:38;;;;;;;5.63;3.80;;;2.80;72.00;;;;;;5067807;28;20029;-65
2021/04/08 01:32:06;;;;;;;5.15;3.40;;;2.80;72.00;;;;;;5062257;28;20044;-67
2021/04/08 01:34:35;;;;;;;8.63;3.95;;;2.80;72.00;;;;;;5073539;28;20035;-67
2021/04/08 01:37:06;;;;;;;6.70;4.13;;;2.80;72.00;;;;;;5069449;28;20035;-65
2021/04/08 01:39:34;;;;;;;7.78;4.20;;;2.80;71.90;;;;;;5067112;28;20104;-67
2021/04/08 01:42:01;;;;;;;5.43;3.78;;;2.80;71.80;;;;;;5071385;28;20031;-67
2021/04/08 01:44:27;;;;;;;7.50;3.78;;;2.80;71.80;;;;;;5066071;28;20021;-67
2021/04/08 01:47:06;;;;;;;10.38;4.25;;;2.80;71.80;;;;;;5069541;28;20051;-66
2021/04/08 01:49:39;;;;;;;8.02;4.07;;;2.80;72.00;;;;;;5081954;28;20024;-67
2021/04/08 01:52:07;;;;;;;8.25;4.25;;;2.80;71.80;;;;;;5067247;28;20048;-67
2021/04/08 01:54:36;;;;;;;5.22;3.72;;;2.80;71.80;;;;;;5074574;28;20035;-67
2021/04/08 01:57:06;;;;;;;6.10;4.30;;;2.80;71.80;;;;;;5072863;28;20033;-68
2021/04/08 01:59:32;;;;;;;8.65;4.85;;;2.70;71.70;;;;;;5071169;28;20089;-67
2021/04/08 02:01:59;;;;;;;9.23;4.10;;;2.70;71.70;;;;;;5067577;28;20107;-67
2021/04/08 02:04:26;;;;;;;8.65;5.30;;;2.70;71.70;;;;;;5067707;28;20027;-67
2021/04/08 02:06:53;;;;;;;10.55;4.32;;;2.70;71.70;;;;;;5070725;28;20030;-67
2021/04/08 02:09:22;;;;;;;7.95;4.70;;;2.70;71.90;;;;;;5086175;28;20032;-67
2021/04/08 02:11:48;;;;;;;5.25;3.92;;;2.70;71.70;;;;;;5069519;28;20448;-67
2021/04/08 02:14:15;;;;;;;9.25;4.60;;;2.70;71.70;;;;;;5068307;28;20361;-65
2021/04/08 02:16:46;;;;;;;8.93;4.65;;;2.70;71.80;;;;;;5069789;28;20093;-67
2021/04/08 02:19:13;;;;;;;6.30;4.35;;;2.70;71.70;;;;;;5070208;28;20472;-67
2021/04/08 02:21:40;;;;;;;7.93;4.55;;;2.70;71.60;;;;;;5083505;28;20020;-67
2021/04/08 02:24:09;;;;;;;8.57;4.80;;;2.60;71.60;;;;;;5065711;28;20032;-66
2021/04/08 02:26:35;;;;;;;8.00;4.03;;;2.60;71.40;;;;;;5068453;28;20039;-67
2021/04/08 02:29:03;;;;;;;8.80;4.50;;;2.60;71.30;;;;;;5063013;28;20028;-66
2021/04/08 02:31:30;;;;;;;9.13;3.90;;;2.60;71.60;;;;;;5084044;28;20040;-66
2021/04/08 02:33:56;;;;;;;7.82;4.20;;;2.60;71.40;;;;;;5050268;28;20051;-65
2021/04/08 02:36:21;;;;;;;7.80;3.60;;;2.60;71.30;;;;;;5063190;28;20028;-66
2021/04/08 02:38:47;;;;;;;7.45;4.30;;;2.60;71.10;;;;;;5066226;28;20024;-67
2021/04/08 02:41:13;;;;;;;9.35;3.85;;;2.50;70.90;;;;;;5060536;28;20028;-68
2021/04/08 02:43:39;;;;;;;6.90;3.75;;;2.50;70.90;;;;;;5067835;28;20384;-66
2021/04/08 02:46:04;;;;;;;7.40;3.85;;;2.50;71.00;;;;;;5063821;28;20139;-66
2021/04/08 02:48:32;;;;;;;6.97;3.92;;;2.50;70.80;;;;;;5063014;28;20043;-67
2021/04/08 02:51:05;;;;;;;5.80;3.17;;;2.50;70.80;;;;;;5063188;28;20028;-67
2021/04/08 02:53:57;;;;;;;7.57;3.45;;;2.50;70.70;;;;;;5067428;28;20337;-67
2021/04/08 02:56:32;;;;;;;8.18;3.88;;;2.50;70.60;;;;;;5069547;28;20033;-66
2021/04/08 02:59:08;;;;;;;9.15;3.90;;;2.50;70.10;;;;;;5061039;28;20028;-67
2021/04/08 03:01:44;;;;;;;4.75;3.17;;;2.50;70.10;;;;;;5066366;28;20388;-67
2021/04/08 03:04:13;;;;;;;7.60;3.25;;;2.50;70.00;;;;;;5067539;28;20090;-65
2021/04/08 03:06:41;;;;;;;5.72;3.30;;;2.50;70.00;;;;;;5072021;28;20432;-67
2021/04/08 03:09:08;;;;;;;9.40;3.50;;;2.40;70.00;;;;;;5070367;28;20035;-67
2021/04/08 03:11:35;;;;;;;7.28;3.50;;;2.40;69.80;;;;;;5078125;28;20051;-67
2021/04/08 03:14:05;;;;;;;7.63;3.30;;;2.40;69.40;;;;;;5079000;28;20044;-67
2021/04/08 03:16:39;;;;;;;8.00;3.75;;;2.40;69.40;;;;;;5069532;28;20028;-67
2021/04/08 03:19:09;;;;;;;4.97;3.65;;;2.40;69.40;;;;;;5068889;28;20047;-68
2021/04/08 03:21:36;;;;;;;6.03;3.33;;;2.40;69.50;;;;;;5069186;28;20086;-66
2021/04/08 03:24:02;;;;;;;11.25;3.90;;;2.40;69.50;;;;;;5069550;28;20132;-66
2021/04/08 03:26:29;;;;;;;5.90;3.55;;;2.40;69.50;;;;;;5069505;28;20054;-66
2021/04/08 03:28:56;;;;;;;9.23;3.55;;;2.40;69.30;;;;;;5073563;28;20111;-67
2021/04/08 03:31:23;;;;;;;6.15;3.60;;;2.40;69.40;;;;;;5061805;28;20062;-67
2021/04/08 03:33:50;;;;;;;4.97;3.20;;;2.40;69.40;;;;;;5068173;28;20082;-66
2021/04/08 03:36:16;;;;;;;8.88;3.40;;;2.30;69.20;;;;;;5068104;28;20086;-67
2021/04/08 03:38:43;;;;;;;7.72;4.00;;;2.40;69.20;;;;;;5067483;28;20075;-66
2021/04/08 03:41:09;;;;;;;5.18;3.45;;;2.30;69.00;;;;;;5068859;28;20444;-66
2021/04/08 03:43:36;;;;;;;7.47;3.88;;;2.30;68.70;;;;;;5070387;28;20029;-67
2021/04/08 03:46:04;;;;;;;7.22;3.67;;;2.30;68.70;;;;;;5066126;28;20036;-65
2021/04/08 03:48:32;;;;;;;10.68;3.78;;;2.30;68.80;;;;;;5067320;28;20116;-67
2021/04/08 03:50:58;;;;;;;7.45;4.25;;;2.30;68.90;;;;;;5065665;28;20025;-67
2021/04/08 03:53:25;;;;;;;6.03;3.58;;;2.20;68.70;;;;;;5069325;28;20029;-67
2021/04/08 03:55:52;;;;;;;8.45;4.15;;;2.20;68.80;;;;;;5067633;28;20128;-66
2021/04/08 03:58:19;;;;;;;6.20;3.80;;;2.20;68.90;;;;;;5067157;28;20052;-66
2021/04/08 04:00:45;;;;;;;7.85;4.45;;;2.20;69.00;;;;;;5066093;28;20024;-67
2021/04/08 04:03:14;;;;;;;9.20;4.25;;;2.20;69.00;;;;;;5067794;28;20029;-67
2021/04/08 04:05:42;;;;;;;5.78;3.97;;;2.20;69.20;;;;;;5076734;22;20119;-69
2021/04/08 04:08:10;;;;;;;6.07;3.70;;;2.20;69.00;;;;;;5057614;28;20040;-69
2021/04/08 04:10:38;;;;;;;6.75;4.20;;;2.20;69.00;;;;;;5067199;28;20028;-69
2021/04/08 04:13:05;;;;;;;5.95;4.28;;;2.20;69.10;;;;;;5070172;28;20051;-68
2021/04/08 04:15:34;;;;;;;10.27;4.10;;;2.20;69.10;;;;;;5068639;28;20029;-69
2021/04/08 04:18:08;;;;;;;9.70;4.03;;;2.10;68.90;;;;;;5068256;28;20029;-69
2021/04/08 04:20:36;;;;;;;13.63;4.15;;;2.10;68.90;;;;;;5068004;28;20029;-68
2021/04/08 04:23:05;;;;;;;5.55;3.40;;;2.10;68.90;;;;;;5083778;28;20091;-69
2021/04/08 04:25:31;;;;;;;8.48;4.50;;;2.10;69.00;;;;;;5065562;28;20123;-69
2021/04/08 04:27:57;;;;;;;8.15;4.20;;;2.10;69.00;;;;;;5072457;28;20033;-68
2021/04/08 04:30:23;;;;;;;9.00;4.25;;;2.00;68.90;;;;;;5064006;28;20548;-69
2021/04/08 04:32:52;;;;;;;8.35;4.30;;;2.00;69.00;;;;;;5071404;28;20392;-68
2021/04/08 04:35:17;;;;;;;8.60;3.97;;;2.00;69.00;;;;;;5080780;28;20028;-69
2021/04/08 04:37:43;;;;;;;7.80;4.32;;;2.00;68.90;;;;;;5072503;28;20475;-69
2021/04/08 04:40:09;;;;;;;10.10;4.90;;;2.00;68.80;;;;;;5068652;28;20485;-67
2021/04/08 04:42:36;;;;;;;7.38;4.30;;;2.00;68.70;;;;;;5078639;28;20025;-67
2021/04/08 04:45:03;;;;;;;8.05;4.07;;;1.90;68.90;;;;;;5071718;28;20052;-67
2021/04/08 04:47:29;;;;;;;7.32;4.30;;;2.00;68.90;;;;;;5073270;28;20106;-68
2021/04/08 04:49:54;;;;;;;8.43;4.63;;;1.90;68.70;;;;;;5078739;28;20503;-67
2021/04/08 04:52:20;;;;;;;7.75;4.38;;;1.90;68.70;;;;;;5072320;28;20085;-68
2021/04/08 04:54:46;;;;;;;9.57;4.28;;;1.90;68.60;;;;;;5073236;28;20602;-67
2021/04/08 04:57:11;;;;;;;7.68;4.38;;;1.90;68.50;;;;;;5070110;28;20105;-67
2021/04/08 04:59:37;;;;;;;11.93;3.97;;;1.80;68.70;;;;;;5064469;28;20032;-67
2021/04/08 05:02:03;;;;;;;10.68;4.78;;;1.80;68.60;;;;;;5070961;28;20029;-66
2021/04/08 05:04:29;;;;;;;7.45;3.70;;;1.80;68.80;;;;;;5090235;28;20021;-67
2021/04/08 05:06:55;;;;;;;7.45;4.90;;;1.90;68.90;;;;;;5063797;28;20101;-67
2021/04/08 05:09:21;;;;;;;10.02;4.15;;;1.90;69.00;;;;;;5070047;28;20032;-68
2021/04/08 05:11:46;;;;;;;11.95;4.47;;;1.90;68.90;;;;;;5066608;28;20031;-68
2021/04/08 05:14:12;;;;;;;13.63;4.75;;;1.90;68.70;;;;;;5068415;28;20119;-68
2021/04/08 05:16:38;;;;;;;7.68;3.80;;;2.00;68.60;;;;;;5077237;28;20067;-67
2021/04/08 05:19:06;;;;;;;7.97;4.43;;;2.00;68.60;;;;;;5079123;28;20028;-66
2021/04/08 05:21:32;;;;;;;8.38;4.70;;;2.10;68.60;;;;;;5093311;28;20476;-67
2021/04/08 05:23:58;;;;;;;12.45;4.40;;;2.10;68.50;;;;;;5076698;28;20032;-67
2021/04/08 05:26:23;;;;;;;9.48;4.65;;;2.10;68.40;;;;;;5079525;28;20127;-67
2021/04/08 05:28:49;;;;;;;11.15;5.18;;;2.20;68.30;;;;;;5071644;28;20167;-66
2021/04/08 05:31:15;;;;;;;11.48;4.47;;;2.20;68.30;;;;;;5087655;28;20060;-67
2021/04/08 05:33:40;;;;;;;8.65;4.28;;;2.30;68.30;;;;;;5067254;28;20052;-66
2021/04/08 05:36:06;;;;;;;7.13;4.32;;;2.30;68.10;;;;;;5077772;28;20393;-67
2021/04/08 05:38:32;;;;;;;9.32;4.38;;;2.30;68.10;;;;;;5079154;28;20032;-67
2021/04/08 05:40:57;;;;;;;7.75;3.90;;;2.30;67.90;;;;;;5076013;28;20385;-66
2021/04/08 05:43:23;;;;;;;7.15;4.40;;;2.40;68.00;;;;;;5079157;28;20032;-68
2021/04/08 05:45:49;;;;;;;11.13;4.45;;;2.30;68.00;;;;;;5071176;28;20043;-67
2021/04/08 05:48:15;;;;;;;12.43;6.15;;;2.40;68.20;;;;;;5071740;28;20432;-68
2021/04/08 05:50:41;;;;;;;6.65;4.15;;;2.40;68.30;;;;;;5087061;28;20396;-68
2021/04/08 05:53:07;;;;;;;6.82;4.07;;;2.40;68.20;;;;;;5077291;28;20029;-66
2021/04/08 05:55:33;;;;;;;7.05;3.75;;;2.50;68.20;;;;;;5070968;28;20089;-67
2021/04/08 05:57:59;;;;;;;8.30;4.20;;;2.50;68.20;;;;;;5071473;28;20085;-66
2021/04/08 06:00:25;;;;;;;7.63;4.03;;;2.60;68.20;;;;;;5071066;28;20020;-67
2021/04/08 06:02:50;;;;;;;7.35;3.70;;;2.60;68.00;;;;;;5071260;28;20107;-67
2021/04/08 06:05:16;;;;;;;7.30;4.20;;;2.60;67.80;;;;;;5069977;28;20028;-67
2021/04/08 06:07:42;;;;;;;6.68;3.97;;;2.60;67.70;;;;;;5070310;28;20037;-68
2021/04/08 06:10:09;;;;;;;8.32;4.03;;;2.70;67.60;;;;;;5066763;28;20119;-67
2021/04/08 06:12:38;;;;;;;9.13;5.20;;;2.70;67.90;;;;;;5067833;28;20040;-67
2021/04/08 06:15:05;;;;;;;8.70;4.00;;;2.70;67.80;;;;;;5066594;28;20024;-68
2021/04/08 06:17:30;;;;;;;7.32;3.90;;;2.70;67.60;;;;;;5070995;28;20636;-68
2021/04/08 06:19:56;;;;;;;12.35;4.57;;;2.70;67.70;;;;;;5071637;28;20044;-68
2021/04/08 06:22:22;;;;;;;12.45;4.78;;;2.80;67.60;;;;;;5087723;28;20147;-68
2021/04/08 06:24:47;;;;;;;9.35;4.57;;;2.90;67.20;;;;;;5071159;28;20102;-68
2021/04/08 06:27:13;;;;;;;10.85;4.43;;;2.90;67.10;;;;;;5071296;28;20492;-67
2021/04/08 06:29:39;;;;;;;6.80;4.05;;;2.90;66.70;;;;;;5071426;28;20029;-68
2021/04/08 06:32:05;;;;;;;7.28;4.55;;;2.90;66.50;;;;;;5071535;28;20024;-68
2021/04/08 06:34:31;;;;;;;6.40;4.20;;;2.90;66.70;;;;;;5070884;28;20036;-68
2021/04/08 06:36:56;;;;;;;10.98;4.82;;;2.90;66.40;;;;;;5073548;28;20568;-68
2021/04/08 06:39:22;;;;;;;7.50;4.10;;;3.00;66.70;;;;;;5056446;28;20397;-68
2021/04/08 06:41:49;;;;;;;10.05;4.53;;;3.00;66.60;;;;;;5051508;28;20493;-68
2021/04/08 06:44:19;;;;;;;9.27;4.35;;;3.10;66.40;;;;;;5067852;28;20027;-69
2021/04/08 06:46:47;;;;;;;10.00;4.43;;;3.20;66.20;;;;;;5070880;28;20035;-68
2021/04/08 06:49:18;;;;;;;6.78;4.15;;;3.20;66.00;;;;;;5071761;28;20081;-68
2021/04/08 06:51:48;;;;;;;5.90;3.88;;;3.30;65.40;;;;;;5078795;28;20388;-68
2021/04/08 06:54:16;;;;;;;7.40;4.30;;;3.30;65.90;;;;;;5088111;28;20036;-68
2021/04/08 06:56:43;;;;;;;7.53;4.30;;;3.50;66.00;;;;;;5085389;28;20027;-67
2021/04/08 06:59:11;;;;;;;10.32;4.50;;;3.60;65.90;;;;;;5071141;28;20414;-68
2021/04/08 07:01:37;;;;;;;9.18;4.10;;;3.60;65.70;;;;;;5070511;28;20115;-68
2021/04/08 07:04:05;;;;;;;9.60;4.53;;;3.70;65.80;;;;;;5070838;28;20028;-68
2021/04/08 07:06:30;;;;;;;7.68;4.40;;;3.80;65.30;;;;;;5054037;28;20555;-68
2021/04/08 07:08:57;;;;;;;9.98;4.78;;;3.90;64.60;;;;;;5070616;28;20029;-69
2021/04/08 07:11:23;;;;;;;15.60;4.38;;;3.80;64.80;;;;;;5070449;28;20028;-69
2021/04/08 07:13:49;;;;;;;8.77;4.25;;;3.90;64.70;;;;;;5066634;28;20052;-69
2021/04/08 07:16:16;;;;;;;9.73;4.20;;;4.00;64.90;;;;;;5076469;28;20109;-69
2021/04/08 07:18:41;;;;;;;7.28;3.92;;;4.30;64.50;;;;;;5070529;28;20049;-69
2021/04/08 07:21:07;;;;;;;7.03;3.78;;;4.50;64.60;;;;;;5071063;28;20024;-68
2021/04/08 07:23:33;;;;;;;14.48;4.25;;;4.80;64.70;;;;;;5090959;28;20016;-69
2021/04/08 07:26:05;;;;;;;7.53;3.95;;;5.10;63.60;;;;;;5070067;28;20070;-69
2021/04/08 07:28:32;;;;;;;9.00;4.25;;;5.30;63.20;;;;;;5070893;28;20098;-69
2021/04/08 07:31:22;;;;;;;8.35;3.80;;;5.50;62.90;;;;;;5076638;28;20097;-69
2021/04/08 07:33:49;;;;;;;7.95;4.07;;;5.60;62.70;;;;;;5090511;28;20074;-71
2021/04/08 07:36:28;;;;;;;8.15;3.80;;;5.90;61.90;;;;;;5066456;28;20063;-68
2021/04/08 07:38:55;;;;;;;8.15;3.70;;;6.10;61.80;;;;;;5066389;28;20075;-68
2021/04/08 07:41:37;;;;;;;6.10;3.90;;;6.30;61.40;;;;;;5069296;28;20024;-68
2021/04/08 07:44:06;;;;;;;8.57;3.87;;;6.60;61.80;;;;;;5069439;28;20025;-68
2021/04/08 07:46:42;;;;;;;9.57;4.32;;;7.00;61.90;;;;;;5069501;28;20041;-68
2021/04/08 07:49:28;;;;;;;8.45;3.80;;;7.40;61.70;;;;;;5070210;28;20506;-69
2021/04/08 07:52:13;;;;;;;8.43;3.95;;;7.70;60.30;;;;;;5072798;28;20028;-68
2021/04/08 07:54:38;;;;;;;9.75;3.60;;;7.90;59.50;;;;;;5066123;28;20441;-68
2021/04/08 07:57:04;;;;;;;6.07;3.78;;;7.90;58.50;;;;;;5069842;28;20158;-68
2021/04/08 07:59:30;;;;;;;10.27;3.58;;;7.90;57.50;;;;;;5069345;28;20483;-68
2021/04/08 08:02:01;;;;;;;9.32;4.22;;;7.50;57.30;;;;;;5070739;28;20107;-68
2021/04/08 08:04:28;;;;;;;6.65;3.47;;;7.50;58.60;;;;;;5069371;28;20016;-70
2021/04/08 08:06:55;;;;;;;14.27;3.92;;;7.60;58.80;;;;;;5068862;28;20133;-68
2021/04/08 08:09:30;;;;;;;8.52;4.00;;;8.10;58.80;;;;;;5068031;28;20033;-68
2021/04/08 08:12:17;;;;;;;8.50;4.07;;;8.30;58.80;;;;;;5056777;28;20033;-69
2021/04/08 08:14:42;;;;;;;7.55;4.00;;;8.40;57.80;;;;;;5065319;28;20082;-68
2021/04/08 08:17:09;;;;;;;8.45;3.55;;;8.20;58.70;;;;;;5069641;28;20036;-69
2021/04/08 08:19:42;;;;;;;8.90;3.95;;;8.20;58.70;;;;;;5069827;28;20484;-68
2021/04/08 08:22:09;;;;;;;8.55;3.85;;;8.40;58.50;;;;;;5069639;28;20547;-69
2021/04/08 08:24:35;;;;;;;6.10;3.53;;;8.40;58.40;;;;;;5068814;28;20031;-68
2021/04/08 08:27:01;;;;;;;12.93;3.90;;;8.30;58.20;;;;;;5076231;28;20403;-68
2021/04/08 08:29:29;;;;;;;8.90;3.45;;;8.30;56.70;;;;;;5069184;28;20028;-68
2021/04/08 08:32:02;;;;;;;6.47;3.60;;;8.30;57.30;;;;;;5069566;28;20017;-68
2021/04/08 08:34:32;;;;;;;6.38;3.38;;;8.20;56.50;;;;;;5069009;28;20028;-68
2021/04/08 08:37:02;;;;;;;8.32;3.20;;;8.60;57.10;;;;;;5061075;28;20032;-69
2021/04/08 08:39:32;;;;;;;7.30;3.28;;;8.60;57.60;;;;;;5049679;28;20029;-69
2021/04/08 08:42:00;;;;;;;7.78;3.20;;;8.70;57.40;;;;;;5049618;28;20052;-69
2021/04/08 08:44:27;;;;;;;8.52;4.30;;;8.80;55.20;;;;;;5068251;28;20560;-68
2021/04/08 08:46:55;;;;;;;6.25;3.33;;;9.10;54.30;;;;;;5085786;28;20150;-69
2021/04/08 08:49:31;;;;;;;8.55;4.13;;;8.70;55.10;;;;;;5071538;28;20029;-69
2021/04/08 08:52:00;;;;;;;5.25;3.95;;;8.70;56.10;;;;;;5054596;28;20031;-70
2021/04/08 08:54:27;;;;;;;6.20;3.70;;;8.80;53.50;;;;;;5074051;28;20107;-69
2021/04/08 08:56:55;;;;;;;8.43;3.72;;;9.40;52.50;;;;;;5071033;28;20042;-69
2021/04/08 08:59:21;;;;;;;8.45;3.83;;;9.20;50.50;;;;;;5069105;28;20124;-69
2021/04/08 09:01:47;;;;;;;7.40;3.33;;;8.90;51.90;;;;;;5069337;28;20115;-69
2021/04/08 09:04:13;;;;;;;6.63;3.00;;;9.10;51.10;;;;;;5079063;28;20032;-69
2021/04/08 09:06:42;;;;;;;7.15;3.22;;;9.70;50.40;;;;;;5071734;28;20093;-69
2021/04/08 09:09:10;;;;;;;6.47;2.80;;;10.60;47.20;;;;;;5069147;28;20412;-68
2021/04/08 09:11:38;;;;;;;6.22;3.28;;;11.00;46.10;;;;;;5065999;28;20108;-69
2021/04/08 09:14:04;;;;;;;8.02;2.95;;;10.30;48.50;;;;;;5070453;28;20338;-70
2021/04/08 09:16:31;;;;;;;5.15;3.25;;;9.50;48.90;;;;;;5060044;28;20649;-69
2021/04/08 09:19:09;;;;;;;6.60;3.25;;;8.90;50.40;;;;;;5072515;28;20511;-69
2021/04/08 09:21:53;;;;;;;18.45;11.13;;;8.40;50.50;;;;;;5072736;28;20388;-68
2021/04/08 09:24:31;;;;;;;5.90;2.90;;;8.10;52.10;;;;;;5074043;28;20024;-68
2021/04/08 09:26:59;;;;;;;5.93;2.65;;;7.90;52.50;;;;;;5065036;28;20115;-68
2021/04/08 09:29:34;;;;;;;7.15;3.40;;;7.80;53.00;;;;;;5072148;28;20573;-68
2021/04/08 09:32:26;;;;;;;7.15;2.92;;;7.60;53.50;;;;;;5072483;28;20487;-68
2021/04/08 09:35:07;;;;;;;7.73;2.97;;;7.50;54.00;;;;;;5068512;28;20064;-68
2021/04/08 09:37:45;;;;;;;6.75;2.80;;;7.50;54.00;;;;;;5070196;28;20040;-68
2021/04/08 09:40:37;;;;;;;5.55;2.80;;;7.40;54.50;;;;;;5059401;28;20025;-69
2021/04/08 09:43:07;;;;;;;5.78;2.92;;;7.40;54.70;;;;;;5072483;28;20055;-69
2021/04/08 09:45:35;;;;;;;4.45;2.75;;;7.50;54.60;;;;;;5071487;28;20099;-71
2021/04/08 09:48:08;;;;;;;4.93;2.95;;;7.40;54.50;;;;;;5072557;28;20079;-70
2021/04/08 09:50:57;;;;;;;4.22;3.13;;;7.40;54.50;;;;;;5071681;28;20085;-67
2021/04/08 09:53:38;;;;;;;4.28;2.75;;;7.30;53.80;;;;;;5073491;28;20039;-69
2021/04/08 09:56:06;;;;;;;7.28;3.28;;;7.20;54.10;;;;;;5071487;28;20038;-67
2021/04/08 09:58:36;;;;;;;8.48;2.97;;;7.00;54.00;;;;;;5071571;28;20472;-69
2021/04/08 10:01:10;;;;;;;6.32;3.35;;;6.90;53.90;;;;;;5072051;28;20089;-68
2021/04/08 10:03:41;;;;;;;9.95;4.85;;;6.70;52.70;;;;;;5063358;28;20428;-68
2021/04/08 10:06:16;;;;;;;5.13;3.20;;;6.50;53.70;;;;;;5057621;28;20120;-70
2021/04/08 10:08:42;;;;;;;6.18;3.00;;;6.50;54.30;;;;;;5088723;22;20040;-89
2021/04/08 10:11:09;;;;;;;6.40;3.50;;;6.50;54.60;;;;;;5056673;28;20032;-89
2021/04/08 10:13:35;;;;;;;6.38;3.03;;;6.50;54.30;;;;;;5056122;28;20025;-88
2021/04/08 10:16:10;;;;;;;6.40;3.47;;;6.40;53.80;;;;;;5036911;28;20036;-88
2021/04/08 10:18:36;;;;;;;5.88;3.30;;;6.40;52.80;;;;;;5052720;28;20024;-88
2021/04/08 10:21:07;;;;;;;6.55;2.78;;;6.30;53.20;;;;;;5056720;28;20027;-88
2021/04/08 10:23:39;;;;;;;7.55;3.25;;;6.40;53.90;;;;;;5056491;28;20029;-88
2021/04/08 10:26:09;;;;;;;5.13;3.10;;;6.40;53.20;;;;;;5056521;28;20020;-88
2021/04/08 10:28:40;;;;;;;8.13;3.42;;;6.40;52.40;;;;;;5057425;28;20051;-89
2021/04/08 10:31:16;;;;;;;5.90;3.17;;;6.40;53.20;;;;;;5056837;28;20032;-88
2021/04/08 10:33:42;;;;;;;7.03;3.20;;;6.40;52.50;;;;;;5056803;28;20029;-89
2021/04/08 10:36:08;;;;;;;6.18;3.47;;;6.40;53.10;;;;;;5060761;28;20025;-90
2021/04/08 10:38:34;;;;;;;3.67;2.90;;;6.40;53.00;;;;;;5060235;28;20136;-89
2021/04/08 10:41:00;;;;;;;5.65;2.78;;;6.30;53.00;;;;;;5059814;28;20032;-91
2021/04/08 10:43:26;;;;;;;8.05;3.10;;;6.30;53.20;;;;;;5076199;28;20031;-93
2021/04/08 10:45:59;;;;;;;4.50;3.22;;;6.30;52.80;;;;;;5078161;28;20021;-91
2021/04/08 10:48:26;;;;;;;4.85;3.15;;;6.30;51.90;;;;;;5064672;28;20021;-90
2021/04/08 10:50:53;;;;;;;4.97;2.80;;;6.30;52.30;;;;;;5062941;28;20024;-90
2021/04/08 10:53:27;;;;;;;6.95;2.72;;;6.30;52.20;;;;;;5069677;28;20041;-90
2021/04/08 10:55:54;;;;;;;5.47;2.70;;;6.40;52.00;;;;;;5054834;28;20021;-90
2021/04/08 10:58:25;;;;;;;5.07;2.95;;;6.40;50.60;;;;;;5038249;28;20024;-88
2021/04/08 11:00:55;;;;;;;4.63;2.92;;;6.30;50.30;;;;;;5037407;28;20029;-88
2021/04/08 11:03:21;;;;;;;6.65;2.83;;;6.30;50.90;;;;;;5038069;28;20029;-89
2021/04/08 11:05:47;;;;;;;4.80;2.88;;;6.20;50.90;;;;;;5037326;28;20021;-89
2021/04/08 11:08:13;;;;;;;8.45;3.55;;;6.20;51.10;;;;;;5037877;28;20029;-88
2021/04/08 11:10:39;;;;;;;7.75;2.97;;;6.30;51.50;;;;;;5037425;28;20033;-89
2021/04/08 11:13:05;;;;;;;4.18;2.63;;;6.40;51.40;;;;;;5037438;28;20025;-89
2021/04/08 11:15:36;;;;;;;6.32;3.13;;;6.60;50.70;;;;;;5037666;28;20025;-88
2021/04/08 11:18:11;;;;;;;5.88;3.28;;;6.90;51.50;;;;;;5036865;28;20036;-89
2021/04/08 11:20:42;;;;;;;6.70;2.78;;;7.40;51.60;;;;;;5037032;28;20052;-88
2021/04/08 11:23:09;;;;;;;9.60;4.38;;;7.60;51.80;;;;;;5037831;28;20021;-89
2021/04/08 11:25:36;;;;;;;3.25;2.80;;;7.70;50.30;;;;;;5036930;28;20442;-89
2021/04/08 11:28:05;;;;;;;5.82;3.00;;;7.70;48.50;;;;;;5036666;28;20021;-90
2021/04/08 11:30:40;;;;;;;3.38;2.55;;;7.60;47.80;;;;;;5037127;28;20029;-90
2021/04/08 11:33:20;;;;;;;6.25;3.10;;;7.50;48.80;;;;;;5036900;28;20036;-89
2021/04/08 11:35:47;;;;;;;6.40;3.00;;;7.40;49.50;;;;;;5036166;28;20111;-90
2021/04/08 11:38:16;;;;;;;3.70;2.90;;;7.50;49.70;;;;;;5036743;28;20116;-90
2021/04/08 11:40:43;;;;;;;5.32;3.03;;;7.50;49.10;;;;;;5037062;28;20025;-89
2021/04/08 11:43:29;;;;;;;5.00;3.05;;;7.50;48.80;;;;;;5036762;28;20025;-89
2021/04/08 11:45:57;;;;;;;6.38;3.80;;;7.70;49.40;;;;;;5036608;28;20625;-89
2021/04/08 11:48:25;;;;;;;5.97;3.60;;;7.70;47.40;;;;;;5036942;28;20053;-91
2021/04/08 11:50:51;;;;;;;6.22;3.85;;;7.60;47.30;;;;;;5036477;28;20519;-89
2021/04/08 11:53:39;;;;;;;5.50;3.15;;;7.80;47.20;;;;;;5036633;28;20032;-90
2021/04/08 11:56:22;;;;;;;9.10;3.03;;;8.10;48.50;;;;;;5036664;28;20048;-89
2021/04/08 11:58:47;;;;;;;4.90;3.28;;;8.30;48.20;;;;;;5036835;28;20060;-89
2021/04/08 12:01:20;;;;;;;4.95;3.05;;;8.50;46.90;;;;;;5036760;28;20029;-90
2021/04/08 12:03:50;;;;;;;4.82;3.03;;;8.80;47.90;;;;;;5037022;28;20482;-90
2021/04/08 12:06:19;;;;;;;4.55;3.05;;;9.10;48.20;;;;;;5074319;28;20028;-91
2021/04/08 12:08:49;;;;;;;5.78;3.20;;;9.30;47.80;;;;;;5057227;28;20107;-91
2021/04/08 12:11:16;;;;;;;6.45;3.58;;;9.60;47.30;;;;;;5051628;28;20228;-90
2021/04/08 12:13:45;;;;;;;5.63;3.10;;;9.70;44.30;;;;;;5047625;28;20088;-89
2021/04/08 12:16:22;;;;;;;5.22;3.40;;;9.60;44.10;;;;;;5067401;28;20032;-88
2021/04/08 12:18:49;;;;;;;6.63;2.70;;;9.40;43.20;;;;;;5074912;28;20041;-89
2021/04/08 12:21:14;;;;;;;7.53;3.90;;;9.20;44.70;;;;;;5059246;28;20504;-89
2021/04/08 12:23:46;;;;;;;7.22;3.63;;;9.30;44.50;;;;;;5055626;28;20028;-89
2021/04/08 12:26:29;;;;;;;7.68;3.30;;;9.40;44.90;;;;;;5071771;28;20028;-89
2021/04/08 12:28:54;;;;;;;4.30;2.83;;;9.40;43.80;;;;;;5068050;28;20037;-90
2021/04/08 12:31:20;;;;;;;7.47;3.20;;;9.30;45.60;;;;;;5056404;28;20032;-89
2021/04/08 12:33:46;;;;;;;5.82;2.90;;;9.50;45.30;;;;;;5072809;28;20082;-90
2021/04/08 12:36:15;;;;;;;3.58;2.72;;;9.60;45.00;;;;;;5075363;28;20141;-90
2021/04/08 12:38:42;;;;;;;4.68;3.13;;;9.60;45.50;;;;;;5088225;28;20121;-91
2021/04/08 12:41:09;;;;;;;7.63;3.13;;;9.40;43.50;;;;;;5056601;28;20031;-89
2021/04/08 12:43:42;;;;;;;6.05;3.10;;;9.20;44.70;;;;;;5057580;28;20036;-87
2021/04/08 12:46:08;;;;;;;6.22;3.10;;;9.20;44.10;;;;;;5062450;28;20021;-88
2021/04/08 12:48:33;;;;;;;5.15;3.45;;;9.20;43.10;;;;;;5081366;28;20099;-86
2021/04/08 12:50:59;;;;;;;7.10;3.17;;;9.40;44.90;;;;;;5066217;28;20047;-88
2021/04/08 12:53:29;;;;;;;5.03;3.30;;;9.70;45.50;;;;;;5042562;28;20021;-89
2021/04/08 12:55:57;;;;;;;5.28;3.00;;;10.00;45.90;;;;;;5045822;28;20059;-88
2021/04/08 12:58:24;;;;;;;9.95;3.38;;;10.40;46.20;;;;;;5058041;28;20029;-88
2021/04/08 13:00:50;;;;;;;5.25;3.47;;;10.80;45.20;;;;;;5074962;28;20020;-89
2021/04/08 13:03:16;;;;;;;4.97;3.10;;;11.10;44.40;;;;;;5057735;28;20032;-90
2021/04/08 13:05:43;;;;;;;6.78;3.45;;;11.30;44.70;;;;;;5058722;28;20028;-88